Time;durP1;ratioP1;P1;durP2;ratioP2;P2;SDS_P1;SDS_P2;PMS_P1;PMS_P2;Temp;Humidity;BMP_temperature;BMP_pressure;BME280_temperature;BME280_humidity;BME280_pressure;Samples;Min_cycle;Max_cycle;Signal;HPM_P1;HPM_P2
2022/10/25 00:01:26;;;;;;;9.52;6.55;;;14.30;89.80;;;;;;5029907;28;20472;-82
2022/10/25 00:03:52;;;;;;;8.10;6.40;;;14.30;89.80;;;;;;5034363;28;20032;-82
2022/10/25 00:06:18;;;;;;;8.00;5.75;;;14.30;89.80;;;;;;5040102;28;20029;-82
2022/10/25 00:08:43;;;;;;;9.60;6.80;;;14.30;89.80;;;;;;5030637;28;20108;-81
2022/10/25 00:11:18;;;;;;;8.05;5.70;;;14.30;89.70;;;;;;5016159;28;20046;-82
2022/10/25 00:13:43;;;;;;;8.48;5.93;;;14.40;89.80;;;;;;5015048;28;20489;-81
2022/10/25 00:16:18;;;;;;;6.72;5.75;;;14.40;89.60;;;;;;5016235;28;20121;-82
2022/10/25 00:18:44;;;;;;;7.10;5.13;;;14.40;89.40;;;;;;5031218;28;20052;-82
2022/10/25 00:21:10;;;;;;;8.40;5.95;;;14.40;89.50;;;;;;5033010;28;20065;-82
2022/10/25 00:23:35;;;;;;;7.30;5.70;;;14.40;89.50;;;;;;5028068;28;20397;-82
2022/10/25 00:26:03;;;;;;;6.80;5.22;;;14.40;89.90;;;;;;5030813;28;20037;-82
2022/10/25 00:28:29;;;;;;;9.35;6.68;;;14.40;89.30;;;;;;5020702;28;20089;-82
2022/10/25 00:31:10;;;;;;;8.93;6.60;;;14.50;89.20;;;;;;5027819;28;20580;-81
2022/10/25 00:33:37;;;;;;;;;;;14.50;88.80;;;;;;5018407;28;20029;-82
2022/10/25 00:36:08;;;;;;;9.50;6.70;;;14.40;88.40;;;;;;5020514;28;19931;-81
2022/10/25 00:38:34;;;;;;;8.52;6.03;;;14.40;88.40;;;;;;5028914;28;20049;-82
2022/10/25 00:41:00;;;;;;;8.63;6.22;;;14.40;88.30;;;;;;5005239;28;20069;-83
2022/10/25 00:43:40;;;;;;;8.63;6.55;;;14.40;88.40;;;;;;5010610;28;20033;-83
2022/10/25 00:46:17;;;;;;;9.73;6.30;;;14.40;88.30;;;;;;5016384;28;20044;-83
2022/10/25 00:48:51;;;;;;;7.93;5.22;;;14.40;88.40;;;;;;5037689;28;20069;-84
2022/10/25 00:51:18;;;;;;;6.80;4.70;;;14.40;88.30;;;;;;5011577;28;20501;-84
2022/10/25 00:53:44;;;;;;;7.03;5.53;;;14.40;88.50;;;;;;5010343;28;20468;-84
2022/10/25 00:56:15;;;;;;;7.70;5.47;;;14.40;88.40;;;;;;5018931;28;20037;-84
2022/10/25 00:58:45;;;;;;;7.22;5.32;;;14.40;88.40;;;;;;5024164;28;20112;-83
2022/10/25 01:01:13;;;;;;;7.72;5.82;;;14.40;88.40;;;;;;5027941;28;20033;-83
2022/10/25 01:03:40;;;;;;;7.80;5.80;;;14.40;88.40;;;;;;5038855;28;20014;-84
2022/10/25 01:06:10;;;;;;;8.68;5.78;;;14.40;88.40;;;;;;5013605;28;20032;-84
2022/10/25 01:08:37;;;;;;;7.07;5.57;;;14.40;88.30;;;;;;5010533;28;20025;-83
2022/10/25 01:11:03;;;;;;;6.63;5.07;;;14.40;88.40;;;;;;5015156;28;20472;-83
2022/10/25 01:13:29;;;;;;;6.35;4.85;;;14.40;88.40;;;;;;5025624;28;20037;-83
2022/10/25 01:16:18;;;;;;;7.68;5.47;;;14.40;88.40;;;;;;5027670;28;20378;-83
2022/10/25 01:18:50;;;;;;;6.20;5.15;;;14.40;88.30;;;;;;5005613;28;20021;-84
2022/10/25 01:21:18;;;;;;;;;;;14.40;88.30;;;;;;5030130;28;20045;-84
2022/10/25 01:23:52;;;;;;;7.05;4.80;;;14.30;88.00;;;;;;5017663;28;19909;-84
2022/10/25 01:26:18;;;;;;;5.97;4.60;;;14.40;88.30;;;;;;5028310;28;20037;-84
2022/10/25 01:29:01;;;;;;;6.75;4.82;;;14.30;88.30;;;;;;5029717;28;20022;-83
2022/10/25 01:31:56;;;;;;;6.40;4.82;;;14.30;88.20;;;;;;5025048;28;20025;-84
2022/10/25 01:34:28;;;;;;;7.32;4.95;;;14.30;88.20;;;;;;5028345;28;20341;-83
2022/10/25 01:37:26;;;;;;;6.32;4.63;;;14.30;88.30;;;;;;5033428;28;20036;-84
2022/10/25 01:40:05;;;;;;;5.55;4.38;;;14.30;88.20;;;;;;5018439;28;20080;-84
2022/10/25 01:42:48;;;;;;;7.80;5.53;;;14.30;88.30;;;;;;5028989;28;20352;-84
2022/10/25 01:45:26;;;;;;;7.10;5.43;;;14.30;88.40;;;;;;5006845;28;20432;-83
2022/10/25 01:47:57;;;;;;;7.22;5.50;;;14.30;88.40;;;;;;5028459;28;20036;-84
2022/10/25 01:50:33;;;;;;;7.65;5.72;;;14.30;88.30;;;;;;5033662;28;20022;-83
2022/10/25 01:52:59;;;;;;;7.20;5.63;;;14.30;88.20;;;;;;5034658;28;20308;-84
2022/10/25 01:55:45;;;;;;;6.38;4.82;;;14.30;88.40;;;;;;5014056;28;20025;-84
2022/10/25 01:58:20;;;;;;;6.45;4.90;;;14.30;88.20;;;;;;5003799;28;20021;-84
2022/10/25 02:01:13;;;;;;;7.13;4.60;;;14.30;88.30;;;;;;5012974;28;20053;-84
2022/10/25 02:03:45;;;;;;;8.02;5.38;;;14.30;88.10;;;;;;5023538;28;20101;-84
2022/10/25 02:06:33;;;;;;;7.22;5.53;;;14.30;88.10;;;;;;5027636;28;20033;-84
2022/10/25 02:09:06;;;;;;;6.32;4.93;;;14.30;87.90;;;;;;5021062;28;20084;-83
2022/10/25 02:11:33;;;;;;;6.55;4.47;;;14.30;88.00;;;;;;5009628;28;20022;-84
2022/10/25 02:14:40;;;;;;;7.22;5.05;;;14.30;87.90;;;;;;5028370;28;20538;-83
2022/10/25 02:17:20;;;;;;;6.53;4.88;;;14.30;87.70;;;;;;5001060;28;20059;-84
2022/10/25 02:19:53;;;;;;;7.15;4.97;;;14.30;87.90;;;;;;5032950;28;20028;-83
2022/10/25 02:22:23;;;;;;;8.23;5.50;;;14.30;87.80;;;;;;5051659;28;20051;-83
2022/10/25 02:24:50;;;;;;;5.47;4.55;;;14.30;87.40;;;;;;5043159;28;20030;-83
2022/10/25 02:27:19;;;;;;;7.88;5.65;;;14.30;87.30;;;;;;5049695;28;20045;-83
2022/10/25 02:29:46;;;;;;;7.47;4.97;;;14.20;87.10;;;;;;5040304;28;20021;-84
2022/10/25 02:32:12;;;;;;;6.97;4.90;;;14.20;87.10;;;;;;5049527;28;20029;-84
2022/10/25 02:34:38;;;;;;;6.88;4.57;;;14.20;87.00;;;;;;5045461;28;20030;-84
2022/10/25 02:37:04;;;;;;;7.80;5.57;;;14.30;87.00;;;;;;5030449;28;20032;-83
2022/10/25 02:39:30;;;;;;;6.85;4.82;;;14.20;86.90;;;;;;5052528;28;20021;-84
2022/10/25 02:41:56;;;;;;;6.40;4.80;;;14.20;86.80;;;;;;5035043;28;20439;-84
2022/10/25 02:44:21;;;;;;;6.95;5.10;;;14.20;86.70;;;;;;5050585;28;20052;-84
2022/10/25 02:46:47;;;;;;;7.25;5.20;;;14.20;87.30;;;;;;5030947;28;20028;-84
2022/10/25 02:49:12;;;;;;;7.15;4.95;;;14.20;86.60;;;;;;5053226;28;20037;-84
2022/10/25 02:51:38;;;;;;;7.28;5.28;;;14.10;86.60;;;;;;5024236;28;20385;-84
2022/10/25 02:54:04;;;;;;;7.85;6.22;;;14.10;86.60;;;;;;5029826;28;20082;-83
2022/10/25 02:56:29;;;;;;;8.20;6.25;;;14.10;86.70;;;;;;5056694;28;20032;-83
2022/10/25 02:58:57;;;;;;;8.23;6.13;;;14.10;86.60;;;;;;5048219;28;20104;-84
2022/10/25 03:01:23;;;;;;;7.50;6.10;;;14.10;86.40;;;;;;5042361;28;20056;-84
2022/10/25 03:03:49;;;;;;;7.53;6.00;;;14.10;86.30;;;;;;5050329;28;20032;-84
2022/10/25 03:06:16;;;;;;;7.93;6.20;;;14.00;86.30;;;;;;5041430;28;20024;-84
2022/10/25 03:08:43;;;;;;;8.57;6.35;;;14.00;86.30;;;;;;5034012;28;20559;-83
2022/10/25 03:11:10;;;;;;;8.27;6.35;;;14.00;86.90;;;;;;5046791;28;20055;-83
2022/10/25 03:13:36;;;;;;;8.15;6.07;;;14.00;86.30;;;;;;5050863;28;20040;-84
2022/10/25 03:16:03;;;;;;;8.57;5.97;;;13.90;86.20;;;;;;5046469;28;20029;-83
2022/10/25 03:18:28;;;;;;;7.15;5.88;;;13.90;86.20;;;;;;5035356;28;20028;-83
2022/10/25 03:20:59;;;;;;;8.43;5.47;;;13.90;86.20;;;;;;5034203;28;20033;-84
2022/10/25 03:23:25;;;;;;;8.45;5.70;;;13.80;86.20;;;;;;5043379;28;20506;-83
2022/10/25 03:25:56;;;;;;;6.63;4.90;;;13.80;86.40;;;;;;5046359;28;20025;-84
2022/10/25 03:28:22;;;;;;;6.72;4.57;;;13.80;86.30;;;;;;5047734;28;20021;-84
2022/10/25 03:30:48;;;;;;;6.35;4.43;;;13.80;86.40;;;;;;5032240;28;20029;-83
2022/10/25 03:33:14;;;;;;;6.82;5.05;;;13.80;86.60;;;;;;5038932;28;20428;-83
2022/10/25 03:35:39;;;;;;;7.15;5.30;;;13.80;86.70;;;;;;5049645;28;20508;-84
2022/10/25 03:38:05;;;;;;;6.85;5.28;;;13.70;86.60;;;;;;5037683;28;20082;-84
2022/10/25 03:40:31;;;;;;;6.63;5.15;;;13.70;86.50;;;;;;5059517;28;20033;-84
2022/10/25 03:42:57;;;;;;;5.32;4.13;;;13.70;86.50;;;;;;5032609;28;20037;-84
2022/10/25 03:45:23;;;;;;;7.13;4.82;;;13.70;86.50;;;;;;5046378;28;20405;-83
2022/10/25 03:47:48;;;;;;;5.72;4.57;;;13.70;86.50;;;;;;5056445;28;20096;-84
2022/10/25 03:50:14;;;;;;;6.90;4.95;;;13.70;86.40;;;;;;5035156;28;20045;-84
2022/10/25 03:52:40;;;;;;;7.47;4.82;;;13.60;86.40;;;;;;5045948;28;20385;-84
2022/10/25 03:55:06;;;;;;;5.97;4.32;;;13.60;86.40;;;;;;5030098;28;20491;-83
2022/10/25 03:57:32;;;;;;;6.00;4.22;;;13.60;86.30;;;;;;5039857;28;20029;-83
2022/10/25 03:59:58;;;;;;;6.70;4.65;;;13.50;86.40;;;;;;5033764;28;20056;-83
2022/10/25 04:02:24;;;;;;;6.93;4.97;;;13.50;86.30;;;;;;5034049;28;20029;-84
2022/10/25 04:04:50;;;;;;;7.85;4.53;;;13.50;86.30;;;;;;5046972;28;20032;-83
2022/10/25 04:07:16;;;;;;;6.60;4.38;;;13.50;86.60;;;;;;5045842;28;20035;-84
2022/10/25 04:09:41;;;;;;;6.30;4.85;;;13.40;86.20;;;;;;5064042;28;20392;-84
2022/10/25 04:12:07;;;;;;;7.28;4.80;;;13.40;86.20;;;;;;5044132;28;20029;-84
2022/10/25 04:14:33;;;;;;;7.00;4.38;;;13.40;86.30;;;;;;5022126;28;20029;-84
2022/10/25 04:16:58;;;;;;;6.13;4.85;;;13.40;86.30;;;;;;5052556;28;20578;-84
2022/10/25 04:19:24;;;;;;;5.75;4.38;;;13.30;86.30;;;;;;5051013;28;20049;-84
2022/10/25 04:21:50;;;;;;;6.40;4.88;;;13.30;86.40;;;;;;5050399;28;20404;-85
2022/10/25 04:24:15;;;;;;;6.75;5.07;;;13.40;86.40;;;;;;5043341;28;20029;-84
2022/10/25 04:26:41;;;;;;;7.15;4.88;;;13.30;86.50;;;;;;5050620;28;20025;-84
2022/10/25 04:29:09;;;;;;;5.97;5.22;;;13.30;86.40;;;;;;5046028;28;20086;-85
2022/10/25 04:31:34;;;;;;;5.88;4.53;;;13.30;86.40;;;;;;5050771;28;20424;-84
2022/10/25 04:34:00;;;;;;;6.80;4.97;;;13.30;86.50;;;;;;5031011;28;20487;-84
2022/10/25 04:36:28;;;;;;;5.50;4.53;;;13.30;86.40;;;;;;5050608;28;20119;-84
2022/10/25 04:38:54;;;;;;;7.65;5.45;;;13.30;86.40;;;;;;5049894;28;20029;-84
2022/10/25 04:41:20;;;;;;;6.85;5.15;;;13.30;86.40;;;;;;5043013;28;20110;-84
2022/10/25 04:43:46;;;;;;;8.00;5.20;;;13.20;86.30;;;;;;5061859;28;20464;-84
2022/10/25 04:46:12;;;;;;;7.85;5.32;;;13.20;86.40;;;;;;5050543;28;20040;-84
2022/10/25 04:48:40;;;;;;;6.18;4.93;;;13.20;86.30;;;;;;5044571;28;20041;-84
2022/10/25 04:51:06;;;;;;;5.75;4.68;;;13.20;86.40;;;;;;5047965;28;20408;-84
2022/10/25 04:53:32;;;;;;;6.43;4.95;;;13.20;86.40;;;;;;5031885;28;20032;-84
2022/10/25 04:56:00;;;;;;;6.43;4.75;;;13.20;86.50;;;;;;5043598;28;20033;-84
2022/10/25 04:58:25;;;;;;;6.85;4.78;;;13.20;86.70;;;;;;5032665;28;20034;-84
2022/10/25 05:00:52;;;;;;;4.93;4.32;;;13.20;86.70;;;;;;5050922;28;20123;-85
2022/10/25 05:03:18;;;;;;;6.72;4.75;;;13.20;86.90;;;;;;5030183;28;20369;-84
2022/10/25 05:05:43;;;;;;;8.63;5.45;;;13.30;87.10;;;;;;5045657;28;20484;-83
2022/10/25 05:08:09;;;;;;;6.30;4.57;;;13.30;87.00;;;;;;5042280;28;20032;-84
2022/10/25 05:10:35;;;;;;;7.43;5.45;;;13.30;86.90;;;;;;5045711;28;20111;-84
2022/10/25 05:13:01;;;;;;;7.25;5.80;;;13.30;86.90;;;;;;5041471;28;20061;-85
2022/10/25 05:15:28;;;;;;;8.32;6.28;;;13.30;86.90;;;;;;5028247;28;20032;-85
2022/10/25 05:17:58;;;;;;;7.72;5.65;;;13.40;86.90;;;;;;5030283;28;20029;-85
2022/10/25 05:20:23;;;;;;;6.53;5.07;;;13.40;86.90;;;;;;5044136;28;20028;-85
2022/10/25 05:22:49;;;;;;;7.45;5.47;;;13.40;87.30;;;;;;5044110;28;20033;-84
2022/10/25 05:25:15;;;;;;;6.43;4.97;;;13.40;87.10;;;;;;5040457;28;20044;-84
2022/10/25 05:27:40;;;;;;;9.35;6.20;;;13.40;87.10;;;;;;5038574;28;20029;-84
2022/10/25 05:30:07;;;;;;;7.30;5.47;;;13.50;87.10;;;;;;5036061;28;20021;-84
2022/10/25 05:32:32;;;;;;;8.40;6.53;;;13.50;87.20;;;;;;5034373;28;20659;-84
2022/10/25 05:34:58;;;;;;;6.68;5.78;;;13.60;87.20;;;;;;5025473;28;20108;-85
2022/10/25 05:37:24;;;;;;;6.50;5.25;;;13.70;87.00;;;;;;5035256;28;20076;-85
2022/10/25 05:39:49;;;;;;;7.85;5.75;;;13.70;87.00;;;;;;5038700;28;20124;-84
2022/10/25 05:42:15;;;;;;;6.65;5.53;;;13.80;86.80;;;;;;5028665;28;20044;-85
2022/10/25 05:44:41;;;;;;;7.45;5.40;;;13.80;86.70;;;;;;5040684;28;20104;-84
2022/10/25 05:47:06;;;;;;;6.85;5.13;;;13.90;86.60;;;;;;5034654;28;20029;-84
2022/10/25 05:49:38;;;;;;;7.43;5.50;;;13.90;86.60;;;;;;5047371;28;20062;-85
2022/10/25 05:52:04;;;;;;;7.30;5.07;;;14.00;86.50;;;;;;5032301;28;20468;-85
2022/10/25 05:54:30;;;;;;;7.35;5.10;;;14.00;86.40;;;;;;5049730;28;20017;-84
2022/10/25 05:56:56;;;;;;;7.35;5.60;;;14.10;86.30;;;;;;5042295;28;20021;-84
2022/10/25 05:59:21;;;;;;;7.32;5.60;;;14.20;86.30;;;;;;5028043;28;20029;-84
2022/10/25 06:01:47;;;;;;;6.30;4.65;;;14.30;86.30;;;;;;5036178;28;20500;-84
2022/10/25 06:04:13;;;;;;;5.78;4.40;;;14.30;86.00;;;;;;5053034;28;20036;-84
2022/10/25 06:06:41;;;;;;;5.95;4.45;;;14.40;85.80;;;;;;5045041;28;20190;-84
2022/10/25 06:09:08;;;;;;;7.45;4.65;;;14.50;85.70;;;;;;5041545;28;20029;-85
2022/10/25 06:11:34;;;;;;;5.32;4.20;;;14.50;85.50;;;;;;5041130;28;20533;-85
2022/10/25 06:13:59;;;;;;;5.47;3.90;;;14.60;85.30;;;;;;5032905;28;20186;-86
2022/10/25 06:16:25;;;;;;;5.72;4.05;;;14.60;85.10;;;;;;5029539;28;20040;-85
2022/10/25 06:18:52;;;;;;;5.60;4.13;;;14.70;84.80;;;;;;5047046;28;20037;-86
2022/10/25 06:21:24;;;;;;;5.55;4.40;;;14.80;84.60;;;;;;5023632;28;20028;-83
2022/10/25 06:23:50;;;;;;;4.45;3.40;;;14.90;84.50;;;;;;5050010;28;20040;-83
2022/10/25 06:26:22;;;;;;;4.47;3.25;;;14.90;84.40;;;;;;5027459;28;20037;-83
2022/10/25 06:28:50;;;;;;;;;;;15.00;84.20;;;;;;5046088;28;20878;-83
2022/10/25 06:31:18;;;;;;;5.05;3.78;;;15.00;84.00;;;;;;5041057;28;19913;-85
2022/10/25 06:33:44;;;;;;;6.57;3.78;;;15.10;84.10;;;;;;5022691;28;20499;-82
2022/10/25 06:36:14;;;;;;;6.53;4.50;;;15.10;83.90;;;;;;5027942;28;20040;-85
2022/10/25 06:38:40;;;;;;;4.30;3.28;;;15.20;83.70;;;;;;5048218;28;20113;-84
2022/10/25 06:41:10;;;;;;;5.28;3.95;;;15.20;83.50;;;;;;5039053;28;20033;-84
2022/10/25 06:43:35;;;;;;;5.80;4.10;;;15.30;83.40;;;;;;5048360;28;20025;-84
2022/10/25 06:46:25;;;;;;;5.25;4.00;;;15.30;83.20;;;;;;5047271;28;20443;-83
2022/10/25 06:48:53;;;;;;;6.00;4.18;;;15.30;83.00;;;;;;5051981;28;20021;-83
2022/10/25 06:51:20;;;;;;;4.97;3.80;;;15.30;82.90;;;;;;5041715;28;20182;-83
2022/10/25 06:53:51;;;;;;;5.40;4.00;;;15.30;82.80;;;;;;5045302;28;20646;-83
2022/10/25 06:56:17;;;;;;;5.05;4.20;;;15.30;82.60;;;;;;5049973;28;20382;-84
2022/10/25 06:58:43;;;;;;;5.80;4.38;;;15.30;82.60;;;;;;5034038;28;20041;-85
2022/10/25 07:01:15;;;;;;;4.68;3.50;;;15.30;83.20;;;;;;5042638;28;20521;-87
2022/10/25 07:03:44;;;;;;;5.65;4.25;;;15.30;82.50;;;;;;5051017;28;20060;-87
2022/10/25 07:06:20;;;;;;;5.72;4.57;;;15.40;82.50;;;;;;5031521;28;20148;-85
2022/10/25 07:08:46;;;;;;;6.10;4.55;;;15.40;82.50;;;;;;5038462;28;20025;-84
2022/10/25 07:11:14;;;;;;;6.32;3.90;;;15.40;82.60;;;;;;5030780;28;20792;-87
2022/10/25 07:13:40;;;;;;;5.97;4.05;;;15.40;82.50;;;;;;5036372;28;20037;-87
2022/10/25 07:16:09;;;;;;;4.40;3.65;;;15.40;82.60;;;;;;5041164;28;20037;-87
2022/10/25 07:18:35;;;;;;;4.72;3.67;;;15.40;82.50;;;;;;5033809;28;20025;-86
2022/10/25 07:21:05;;;;;;;4.78;3.53;;;15.50;82.50;;;;;;5043624;28;21126;-87
2022/10/25 07:23:31;;;;;;;6.25;4.68;;;15.50;82.50;;;;;;5031944;28;20370;-87
2022/10/25 07:25:57;;;;;;;5.57;4.05;;;15.50;82.40;;;;;;5039942;28;20111;-87
2022/10/25 07:28:23;;;;;;;5.32;4.47;;;15.60;82.30;;;;;;5033296;28;20021;-85
2022/10/25 07:30:49;;;;;;;5.53;4.30;;;15.60;82.30;;;;;;5036176;28;20370;-88
2022/10/25 07:33:16;;;;;;;5.85;4.50;;;15.60;82.30;;;;;;5029948;28;20025;-84
2022/10/25 07:35:47;;;;;;;6.25;4.70;;;15.60;82.30;;;;;;5017621;28;20033;-83
2022/10/25 07:38:13;;;;;;;9.93;5.40;;;15.70;82.10;;;;;;5033495;28;20036;-84
2022/10/25 07:40:39;;;;;;;7.30;4.13;;;15.70;81.90;;;;;;5036715;28;20037;-85
2022/10/25 07:43:05;;;;;;;5.68;4.03;;;15.70;81.80;;;;;;5033265;28;20044;-85
2022/10/25 07:45:31;;;;;;;5.88;4.40;;;15.70;81.70;;;;;;5018466;28;20552;-84
2022/10/25 07:47:56;;;;;;;6.30;4.45;;;15.80;81.80;;;;;;5036783;28;20775;-84
2022/10/25 07:50:22;;;;;;;4.97;4.10;;;15.80;81.90;;;;;;5019912;28;20062;-85
2022/10/25 07:52:48;;;;;;;5.20;4.25;;;15.90;81.90;;;;;;5014831;28;20033;-86
2022/10/25 07:55:14;;;;;;;4.70;4.00;;;15.90;81.70;;;;;;5019517;28;20025;-86
2022/10/25 07:57:40;;;;;;;5.50;3.53;;;16.00;81.80;;;;;;5019833;28;20083;-88
2022/10/25 08:00:08;;;;;;;5.43;4.13;;;16.00;81.70;;;;;;5020604;28;20143;-85
2022/10/25 08:02:34;;;;;;;4.65;3.40;;;16.00;81.60;;;;;;5038081;28;20021;-85
2022/10/25 08:05:00;;;;;;;6.13;4.25;;;16.10;81.60;;;;;;5043981;28;20044;-85
2022/10/25 08:07:26;;;;;;;5.32;4.20;;;16.10;81.50;;;;;;5033673;28;20032;-85
2022/10/25 08:09:52;;;;;;;6.05;4.47;;;16.20;81.50;;;;;;5018567;28;20029;-84
2022/10/25 08:12:18;;;;;;;5.93;4.00;;;16.20;81.40;;;;;;5026998;28;20028;-85
2022/10/25 08:14:44;;;;;;;5.07;3.95;;;16.30;81.40;;;;;;5029442;28;20134;-85
2022/10/25 08:17:09;;;;;;;4.50;3.58;;;16.30;81.30;;;;;;5019248;28;20029;-85
2022/10/25 08:19:35;;;;;;;7.10;4.40;;;16.40;81.20;;;;;;5021306;28;20455;-85
2022/10/25 08:22:01;;;;;;;5.22;4.00;;;16.40;80.90;;;;;;5045314;28;20582;-86
2022/10/25 08:24:27;;;;;;;4.45;3.58;;;16.50;81.00;;;;;;5037862;28;20351;-87
2022/10/25 08:26:52;;;;;;;5.07;4.20;;;16.50;80.80;;;;;;5021692;28;20117;-87
2022/10/25 08:29:46;;;;;;;5.78;4.22;;;16.60;80.80;;;;;;5011935;28;20029;-87
2022/10/25 08:32:33;;;;;;;9.68;4.25;;;16.60;80.50;;;;;;5045583;28;20025;-86
2022/10/25 08:35:24;;;;;;;4.65;3.38;;;16.60;80.60;;;;;;5017104;28;20041;-87
2022/10/25 08:37:53;;;;;;;3.83;3.40;;;16.60;80.60;;;;;;5024660;28;20303;-87
2022/10/25 08:40:28;;;;;;;5.45;3.67;;;16.60;80.50;;;;;;5019735;28;20029;-86
2022/10/25 08:43:07;;;;;;;4.88;3.40;;;16.60;80.50;;;;;;5042502;28;20021;-88
2022/10/25 08:45:59;;;;;;;4.32;3.20;;;16.60;80.50;;;;;;5033657;28;20029;-88
2022/10/25 08:48:40;;;;;;;5.32;4.00;;;16.60;80.30;;;;;;5011485;28;20063;-87
2022/10/25 08:51:26;;;;;;;4.93;4.28;;;16.60;80.40;;;;;;5035129;28;20017;-88
2022/10/25 08:53:55;;;;;;;6.32;4.75;;;16.60;80.40;;;;;;5043901;22;20037;-64
2022/10/25 08:56:23;;;;;;;5.45;4.30;;;16.60;80.50;;;;;;5054636;28;20502;-64
2022/10/25 08:58:59;;;;;;;6.82;3.90;;;16.60;80.50;;;;;;5052884;28;20024;-64
2022/10/25 09:01:30;;;;;;;8.38;5.75;;;16.60;80.50;;;;;;5056122;28;20033;-65
2022/10/25 09:03:58;;;;;;;10.68;6.10;;;16.60;80.70;;;;;;5051627;28;20016;-65
2022/10/25 09:06:42;;;;;;;12.18;7.00;;;16.60;80.70;;;;;;5051037;28;20037;-63
2022/10/25 09:09:08;;;;;;;10.80;6.85;;;16.70;80.80;;;;;;5056729;28;20423;-62
2022/10/25 09:11:51;;;;;;;10.43;6.50;;;16.70;80.80;;;;;;5055914;28;20050;-64
2022/10/25 09:14:51;;;;;;;10.95;6.13;;;16.70;80.80;;;;;;5058955;28;20017;-62
2022/10/25 09:17:21;;;;;;;18.65;10.70;;;16.70;81.00;;;;;;5049774;28;20037;-64
2022/10/25 09:20:04;;;;;;;15.07;8.30;;;16.80;81.00;;;;;;5066132;28;20041;-63
2022/10/25 09:22:44;;;;;;;15.30;8.82;;;16.90;80.90;;;;;;5055129;28;20020;-64
2022/10/25 09:25:36;;;;;;;10.18;6.55;;;16.90;80.70;;;;;;5060399;28;20635;-63
2022/10/25 09:28:11;;;;;;;10.02;5.82;;;16.90;80.40;;;;;;5057158;28;20425;-63
2022/10/25 09:30:42;;;;;;;6.43;4.90;;;17.00;80.20;;;;;;5059453;28;20017;-63
2022/10/25 09:33:15;;;;;;;6.05;4.40;;;17.00;80.00;;;;;;5061693;28;22004;-63
2022/10/25 09:35:47;;;;;;;5.47;3.90;;;17.00;79.90;;;;;;5048773;28;20043;-62
2022/10/25 09:38:40;;;;;;;5.63;4.00;;;17.00;79.90;;;;;;5063542;28;20390;-64
2022/10/25 09:41:21;;;;;;;5.00;3.85;;;17.00;79.80;;;;;;5064757;28;20068;-64
2022/10/25 09:44:09;;;;;;;5.85;3.92;;;17.00;79.80;;;;;;5074510;28;20033;-63
2022/10/25 09:46:46;;;;;;;4.72;3.75;;;16.90;79.50;;;;;;5073839;28;20051;-62
2022/10/25 09:49:32;;;;;;;5.20;4.05;;;16.90;79.40;;;;;;5071225;28;20020;-62
2022/10/25 09:52:12;;;;;;;3.83;3.33;;;16.80;79.40;;;;;;5071882;28;20028;-62
2022/10/25 09:54:44;;;;;;;5.70;3.97;;;16.80;79.50;;;;;;5078886;28;20041;-63
2022/10/25 09:57:10;;;;;;;5.05;3.88;;;16.70;79.50;;;;;;5075869;28;20432;-64
2022/10/25 09:59:36;;;;;;;6.38;4.63;;;16.70;79.50;;;;;;5073080;28;20040;-63
2022/10/25 10:02:02;;;;;;;5.47;4.40;;;16.60;79.40;;;;;;5068115;28;20024;-63
2022/10/25 10:04:34;;;;;;;4.80;4.25;;;16.50;79.50;;;;;;5073480;28;20037;-66
2022/10/25 10:07:26;;;;;;;6.45;4.28;;;16.40;79.60;;;;;;5063877;28;21372;-64
2022/10/25 10:09:56;;;;;;;5.60;4.18;;;16.20;79.70;;;;;;5062598;28;20042;-62
2022/10/25 10:12:39;;;;;;;5.20;4.10;;;16.20;80.20;;;;;;5074832;28;20403;-63
2022/10/25 10:15:18;;;;;;;5.82;4.05;;;16.10;80.30;;;;;;5079550;28;20036;-62
2022/10/25 10:17:43;;;;;;;5.38;4.30;;;16.00;80.30;;;;;;5068686;28;20016;-63
2022/10/25 10:20:17;;;;;;;4.50;3.70;;;15.90;80.40;;;;;;5078153;28;20494;-63
2022/10/25 10:22:53;;;;;;;4.57;3.25;;;15.90;80.80;;;;;;5065931;28;20028;-64
2022/10/25 10:25:25;;;;;;;4.47;3.70;;;15.80;81.10;;;;;;5076275;28;20032;-64
2022/10/25 10:27:54;;;;;;;3.85;2.97;;;15.80;81.50;;;;;;5067474;28;20036;-64
2022/10/25 10:30:23;;;;;;;4.95;3.53;;;15.80;81.90;;;;;;5074673;28;20020;-64
2022/10/25 10:32:53;;;;;;;5.72;4.03;;;15.80;82.00;;;;;;5075246;28;20043;-64
2022/10/25 10:35:29;;;;;;;5.50;3.85;;;15.80;82.20;;;;;;5069977;28;20499;-67
2022/10/25 10:38:14;;;;;;;4.75;3.53;;;15.80;82.30;;;;;;5068798;28;20032;-62
2022/10/25 10:40:40;;;;;;;5.20;4.10;;;15.90;82.50;;;;;;5060901;28;20052;-64
2022/10/25 10:43:28;;;;;;;4.80;3.58;;;15.90;82.80;;;;;;5064721;28;20068;-63
2022/10/25 10:46:00;;;;;;;5.05;3.58;;;15.90;82.60;;;;;;5075313;28;20083;-64
2022/10/25 10:48:30;;;;;;;5.80;4.00;;;16.00;82.70;;;;;;5066876;28;20027;-62
2022/10/25 10:50:56;;;;;;;5.25;4.05;;;16.00;82.80;;;;;;5077208;28;20029;-63
2022/10/25 10:53:28;;;;;;;6.65;3.97;;;16.00;82.80;;;;;;5066888;28;20040;-63
2022/10/25 10:55:56;;;;;;;4.85;3.75;;;16.00;82.70;;;;;;5066442;28;20261;-63
2022/10/25 10:58:30;;;;;;;4.53;3.55;;;16.00;82.80;;;;;;5068493;28;20028;-64
2022/10/25 11:01:07;;;;;;;6.13;4.40;;;16.00;82.80;;;;;;5062727;28;20025;-64
2022/10/25 11:03:43;;;;;;;4.65;3.70;;;16.10;82.90;;;;;;5064876;28;20028;-63
2022/10/25 11:06:14;;;;;;;5.72;4.60;;;16.10;82.90;;;;;;5069923;28;20041;-64
2022/10/25 11:08:42;;;;;;;5.43;3.88;;;16.10;82.90;;;;;;5063661;28;20483;-63
2022/10/25 11:11:20;;;;;;;5.10;4.30;;;16.10;82.90;;;;;;5065905;28;20043;-63
2022/10/25 11:13:56;;;;;;;5.32;4.22;;;16.10;83.00;;;;;;5067339;28;20025;-64
2022/10/25 11:16:43;;;;;;;4.65;3.70;;;16.00;82.90;;;;;;5063582;28;20032;-62
2022/10/25 11:19:39;;;;;;;5.63;4.32;;;16.10;83.10;;;;;;5065722;28;20028;-64
2022/10/25 11:22:16;;;;;;;4.97;4.10;;;16.10;83.10;;;;;;5075871;28;20112;-64
2022/10/25 11:24:58;;;;;;;3.90;3.17;;;16.10;83.30;;;;;;5058077;28;20366;-63
2022/10/25 11:28:02;;;;;;;5.13;4.25;;;16.20;83.20;;;;;;5058676;28;20064;-66
2022/10/25 11:30:59;;;;;;;4.85;3.85;;;16.20;83.10;;;;;;5052062;28;20123;-64
2022/10/25 11:33:54;;;;;;;4.80;4.10;;;16.20;83.10;;;;;;5054315;28;20134;-62
2022/10/25 11:36:39;;;;;;;6.28;4.70;;;16.20;83.10;;;;;;5053280;28;20028;-61
2022/10/25 11:39:15;;;;;;;6.30;4.60;;;16.20;83.10;;;;;;5066484;28;20119;-64
2022/10/25 11:41:49;;;;;;;6.85;5.25;;;16.20;83.00;;;;;;5061882;28;20028;-63
2022/10/25 11:44:14;;;;;;;7.28;4.72;;;16.30;83.00;;;;;;5054139;28;20163;-63
2022/10/25 11:46:52;;;;;;;8.55;5.70;;;16.30;83.00;;;;;;5056302;28;20037;-64
2022/10/25 11:49:33;;;;;;;6.82;4.88;;;16.30;83.00;;;;;;5060532;28;20028;-63
2022/10/25 11:52:10;;;;;;;7.40;5.55;;;16.30;83.10;;;;;;5057502;28;20145;-64
2022/10/25 11:54:55;;;;;;;7.95;6.18;;;16.40;83.00;;;;;;5059966;28;20103;-61
2022/10/25 11:57:27;;;;;;;12.57;7.55;;;16.40;83.00;;;;;;5059091;28;20036;-61
2022/10/25 12:00:01;;;;;;;9.45;6.28;;;16.40;83.00;;;;;;5073642;28;20310;-59
2022/10/25 12:02:55;;;;;;;8.68;6.20;;;16.40;82.90;;;;;;5079965;28;20050;-61
2022/10/25 12:05:27;;;;;;;13.07;6.05;;;16.50;82.80;;;;;;5071673;28;20028;-61
2022/10/25 12:08:21;;;;;;;12.35;7.03;;;16.50;82.90;;;;;;5079389;28;20838;-60
2022/10/25 12:10:56;;;;;;;17.30;10.73;;;16.50;83.00;;;;;;5069775;28;20024;-59
2022/10/25 12:13:48;;;;;;;19.02;12.15;;;16.50;82.80;;;;;;5085058;28;20020;-59
2022/10/25 12:16:16;;;;;;;15.18;11.05;;;16.50;82.70;;;;;;5080213;28;20020;-60
2022/10/25 12:18:43;;;;;;;13.48;9.50;;;16.50;82.60;;;;;;5081047;28;22051;-60
2022/10/25 12:21:16;;;;;;;12.60;8.13;;;16.50;82.60;;;;;;5076101;28;20029;-60
2022/10/25 12:23:45;;;;;;;9.05;7.20;;;16.50;82.60;;;;;;5076974;28;20044;-60
2022/10/25 12:26:32;;;;;;;8.98;6.53;;;16.50;82.50;;;;;;5079974;28;20139;-60
2022/10/25 12:29:01;;;;;;;8.13;5.82;;;16.50;82.40;;;;;;5073355;28;20021;-59
2022/10/25 12:31:41;;;;;;;7.53;5.70;;;16.40;82.50;;;;;;5075942;28;20031;-61
2022/10/25 12:34:31;;;;;;;8.02;6.50;;;16.40;82.50;;;;;;5080397;28;20031;-59
2022/10/25 12:37:03;;;;;;;7.57;5.40;;;16.40;82.70;;;;;;5075569;28;20054;-60
2022/10/25 12:39:39;;;;;;;6.65;4.90;;;16.30;82.60;;;;;;5079738;28;20139;-60
2022/10/25 12:42:15;;;;;;;7.53;5.50;;;16.30;82.70;;;;;;5081484;28;20028;-60
2022/10/25 12:44:43;;;;;;;5.65;4.38;;;16.30;83.10;;;;;;5073499;28;20031;-61
2022/10/25 12:47:27;;;;;;;5.32;4.25;;;16.30;83.10;;;;;;5078019;28;20024;-61
2022/10/25 12:50:05;;;;;;;8.15;5.53;;;16.30;83.20;;;;;;5079423;28;20035;-60
2022/10/25 12:52:37;;;;;;;6.25;5.05;;;16.30;83.10;;;;;;5073161;28;21180;-60
2022/10/25 12:55:31;;;;;;;7.25;5.70;;;16.30;83.20;;;;;;5073360;28;20044;-60
2022/10/25 12:58:24;;;;;;;6.57;4.78;;;16.30;83.20;;;;;;5071142;28;20129;-60
2022/10/25 13:01:16;;;;;;;6.18;5.05;;;16.30;83.20;;;;;;5073720;28;20077;-61
2022/10/25 13:04:09;;;;;;;5.93;4.85;;;16.30;83.00;;;;;;5072138;28;20032;-60
2022/10/25 13:06:38;;;;;;;6.75;5.25;;;16.20;82.90;;;;;;5071464;28;20052;-61
2022/10/25 13:09:11;;;;;;;6.32;4.82;;;16.20;83.00;;;;;;5060349;28;20048;-60
2022/10/25 13:11:41;;;;;;;7.03;5.45;;;16.10;82.80;;;;;;5053254;28;20025;-58